Willmathsville, Missouri
Current Conditions -  °F | °C
As of 5:55 PM on Monday 20 Oct 2014 (Local Time) from KIRK Reporting Station
Clear Clear  
Wind Chill: 66°   Ceiling: Unl
Heat Index: 66°   Visibility: 10mi
Dew Point: 44°   Wind: 6mph
Humidity: 45%   Direction: 330°NNW
Pressure: 30.02"   Gusts: NA
Location:  40.3435°N, 92.5364°W
Report Text: KIRK 202255Z AUTO 33005KT 10SM CLR 19/07 A3002 RMK AO2 SLP166 T01890067
Loading
Personal Weather Stations






























Interactive Weather Map
Tropical Storm Tracking
New forecast layout! Learn more

10-Day Weather Forecast

Advertisements
Track Severe Weather on mobile